sensor_id;sensor_type;location;lat;lon;timestamp;P1;durP1;ratioP1;P2;durP2;ratioP2
39540;SDS011;25219;52.244;21.006;2024-03-25T00:00:14;7.77;;;3.63;;
39540;SDS011;25219;52.244;21.006;2024-03-25T00:02:39;6.03;;;3.50;;
39540;SDS011;25219;52.244;21.006;2024-03-25T00:05:05;5.68;;;3.63;;
39540;SDS011;25219;52.244;21.006;2024-03-25T00:07:32;7.50;;;3.70;;
39540;SDS011;25219;52.244;21.006;2024-03-25T00:09:57;10.05;;;3.70;;
39540;SDS011;25219;52.244;21.006;2024-03-25T00:12:24;9.25;;;3.47;;
39540;SDS011;25219;52.244;21.006;2024-03-25T00:14:50;8.95;;;4.10;;
39540;SDS011;25219;52.244;21.006;2024-03-25T00:17:15;7.07;;;4.03;;
39540;SDS011;25219;52.244;21.006;2024-03-25T00:19:41;7.70;;;4.05;;
39540;SDS011;25219;52.244;21.006;2024-03-25T00:22:07;11.95;;;4.63;;
39540;SDS011;25219;52.244;21.006;2024-03-25T00:24:32;8.55;;;4.47;;
39540;SDS011;25219;52.244;21.006;2024-03-25T00:26:57;7.70;;;4.30;;
39540;SDS011;25219;52.244;21.006;2024-03-25T00:29:22;7.43;;;4.57;;
39540;SDS011;25219;52.244;21.006;2024-03-25T00:31:47;10.13;;;4.73;;
39540;SDS011;25219;52.244;21.006;2024-03-25T00:34:13;11.47;;;5.43;;
39540;SDS011;25219;52.244;21.006;2024-03-25T00:36:38;12.40;;;6.10;;
39540;SDS011;25219;52.244;21.006;2024-03-25T00:39:03;9.50;;;4.83;;
39540;SDS011;25219;52.244;21.006;2024-03-25T00:41:28;14.35;;;5.38;;
39540;SDS011;25219;52.244;21.006;2024-03-25T00:43:54;9.73;;;5.67;;
39540;SDS011;25219;52.244;21.006;2024-03-25T00:46:19;13.47;;;6.63;;
39540;SDS011;25219;52.244;21.006;2024-03-25T00:48:44;11.90;;;5.83;;
39540;SDS011;25219;52.244;21.006;2024-03-25T00:51:09;12.03;;;5.77;;
39540;SDS011;25219;52.244;21.006;2024-03-25T00:53:34;11.57;;;6.47;;
39540;SDS011;25219;52.244;21.006;2024-03-25T00:55:59;16.00;;;6.30;;
39540;SDS011;25219;52.244;21.006;2024-03-25T00:58:25;17.83;;;6.77;;
39540;SDS011;25219;52.244;21.006;2024-03-25T01:00:50;14.02;;;7.22;;
39540;SDS011;25219;52.244;21.006;2024-03-25T01:03:15;13.05;;;7.15;;
39540;SDS011;25219;52.244;21.006;2024-03-25T01:05:40;13.80;;;6.70;;
39540;SDS011;25219;52.244;21.006;2024-03-25T01:08:06;16.93;;;7.73;;
39540;SDS011;25219;52.244;21.006;2024-03-25T01:10:31;16.83;;;7.90;;
39540;SDS011;25219;52.244;21.006;2024-03-25T01:12:56;12.20;;;7.53;;
39540;SDS011;25219;52.244;21.006;2024-03-25T01:15:22;15.88;;;8.13;;
39540;SDS011;25219;52.244;21.006;2024-03-25T01:17:47;15.57;;;8.07;;
39540;SDS011;25219;52.244;21.006;2024-03-25T01:20:12;18.40;;;7.87;;
39540;SDS011;25219;52.244;21.006;2024-03-25T01:22:38;17.30;;;8.15;;
39540;SDS011;25219;52.244;21.006;2024-03-25T01:25:04;18.05;;;8.52;;
39540;SDS011;25219;52.244;21.006;2024-03-25T01:27:29;17.17;;;8.27;;
39540;SDS011;25219;52.244;21.006;2024-03-25T01:29:54;16.70;;;8.10;;
39540;SDS011;25219;52.244;21.006;2024-03-25T01:32:19;21.30;;;8.67;;
39540;SDS011;25219;52.244;21.006;2024-03-25T01:34:45;17.05;;;7.63;;
39540;SDS011;25219;52.244;21.006;2024-03-25T01:37:10;16.77;;;8.27;;
39540;SDS011;25219;52.244;21.006;2024-03-25T01:39:35;16.83;;;7.97;;
39540;SDS011;25219;52.244;21.006;2024-03-25T01:42:02;20.45;;;9.38;;
39540;SDS011;25219;52.244;21.006;2024-03-25T01:44:27;23.77;;;9.27;;
39540;SDS011;25219;52.244;21.006;2024-03-25T01:46:52;20.20;;;9.97;;
39540;SDS011;25219;52.244;21.006;2024-03-25T01:49:19;15.77;;;8.68;;
39540;SDS011;25219;52.244;21.006;2024-03-25T01:51:45;18.45;;;9.27;;
39540;SDS011;25219;52.244;21.006;2024-03-25T01:54:10;16.52;;;8.95;;
39540;SDS011;25219;52.244;21.006;2024-03-25T01:56:39;18.45;;;8.98;;
39540;SDS011;25219;52.244;21.006;2024-03-25T01:59:06;20.70;;;8.93;;
39540;SDS011;25219;52.244;21.006;2024-03-25T02:01:31;14.88;;;7.60;;
39540;SDS011;25219;52.244;21.006;2024-03-25T02:03:56;15.53;;;7.97;;
39540;SDS011;25219;52.244;21.006;2024-03-25T02:06:21;15.30;;;8.60;;
39540;SDS011;25219;52.244;21.006;2024-03-25T02:08:48;16.60;;;8.73;;
39540;SDS011;25219;52.244;21.006;2024-03-25T02:11:14;15.82;;;8.45;;
39540;SDS011;25219;52.244;21.006;2024-03-25T02:13:39;14.55;;;8.15;;
39540;SDS011;25219;52.244;21.006;2024-03-25T02:16:04;18.90;;;8.90;;
39540;SDS011;25219;52.244;21.006;2024-03-25T02:18:30;16.65;;;8.63;;
39540;SDS011;25219;52.244;21.006;2024-03-25T02:20:58;20.80;;;8.25;;
39540;SDS011;25219;52.244;21.006;2024-03-25T02:23:23;17.73;;;8.68;;
39540;SDS011;25219;52.244;21.006;2024-03-25T02:25:52;20.33;;;8.55;;
39540;SDS011;25219;52.244;21.006;2024-03-25T02:28:18;19.85;;;8.68;;
39540;SDS011;25219;52.244;21.006;2024-03-25T02:30:43;16.73;;;8.18;;
39540;SDS011;25219;52.244;21.006;2024-03-25T02:33:08;20.73;;;8.93;;
39540;SDS011;25219;52.244;21.006;2024-03-25T02:35:33;18.07;;;9.07;;
39540;SDS011;25219;52.244;21.006;2024-03-25T02:37:59;16.20;;;8.18;;
39540;SDS011;25219;52.244;21.006;2024-03-25T02:40:25;22.70;;;9.07;;
39540;SDS011;25219;52.244;21.006;2024-03-25T02:42:51;20.42;;;8.88;;
39540;SDS011;25219;52.244;21.006;2024-03-25T02:45:16;17.70;;;8.70;;
39540;SDS011;25219;52.244;21.006;2024-03-25T02:47:41;18.63;;;8.50;;
39540;SDS011;25219;52.244;21.006;2024-03-25T02:50:06;18.60;;;8.63;;
39540;SDS011;25219;52.244;21.006;2024-03-25T02:52:32;16.75;;;9.13;;
39540;SDS011;25219;52.244;21.006;2024-03-25T02:54:57;19.73;;;9.27;;
39540;SDS011;25219;52.244;21.006;2024-03-25T02:57:22;16.70;;;9.30;;
39540;SDS011;25219;52.244;21.006;2024-03-25T02:59:47;18.87;;;9.03;;
39540;SDS011;25219;52.244;21.006;2024-03-25T03:02:12;20.15;;;9.55;;
39540;SDS011;25219;52.244;21.006;2024-03-25T03:04:38;17.02;;;9.20;;
39540;SDS011;25219;52.244;21.006;2024-03-25T03:07:03;19.15;;;9.73;;
39540;SDS011;25219;52.244;21.006;2024-03-25T03:09:28;19.70;;;9.00;;
39540;SDS011;25219;52.244;21.006;2024-03-25T03:11:53;18.57;;;9.00;;
39540;SDS011;25219;52.244;21.006;2024-03-25T03:14:18;18.88;;;8.85;;
39540;SDS011;25219;52.244;21.006;2024-03-25T03:16:44;16.80;;;9.40;;
39540;SDS011;25219;52.244;21.006;2024-03-25T03:19:09;19.60;;;9.13;;
39540;SDS011;25219;52.244;21.006;2024-03-25T03:21:34;18.90;;;8.63;;
39540;SDS011;25219;52.244;21.006;2024-03-25T03:24:01;20.42;;;9.63;;
39540;SDS011;25219;52.244;21.006;2024-03-25T03:26:27;20.35;;;10.25;;
39540;SDS011;25219;52.244;21.006;2024-03-25T03:28:53;18.43;;;9.73;;
39540;SDS011;25219;52.244;21.006;2024-03-25T03:31:18;18.27;;;9.80;;
39540;SDS011;25219;52.244;21.006;2024-03-25T03:33:43;26.40;;;10.77;;
39540;SDS011;25219;52.244;21.006;2024-03-25T03:36:08;20.57;;;10.37;;
39540;SDS011;25219;52.244;21.006;2024-03-25T03:38:34;19.37;;;9.70;;
39540;SDS011;25219;52.244;21.006;2024-03-25T03:41:02;18.50;;;10.07;;
39540;SDS011;25219;52.244;21.006;2024-03-25T03:43:27;21.88;;;10.90;;
39540;SDS011;25219;52.244;21.006;2024-03-25T03:45:52;19.93;;;10.43;;
39540;SDS011;25219;52.244;21.006;2024-03-25T03:48:18;22.53;;;10.03;;
39540;SDS011;25219;52.244;21.006;2024-03-25T03:50:43;21.85;;;10.43;;
39540;SDS011;25219;52.244;21.006;2024-03-25T03:53:08;18.25;;;9.70;;
39540;SDS011;25219;52.244;21.006;2024-03-25T03:55:34;22.25;;;10.10;;
39540;SDS011;25219;52.244;21.006;2024-03-25T03:57:59;20.98;;;9.88;;
39540;SDS011;25219;52.244;21.006;2024-03-25T04:00:24;19.57;;;9.67;;
39540;SDS011;25219;52.244;21.006;2024-03-25T04:02:49;21.07;;;10.37;;
39540;SDS011;25219;52.244;21.006;2024-03-25T04:05:14;24.30;;;11.02;;
39540;SDS011;25219;52.244;21.006;2024-03-25T04:07:39;21.43;;;10.03;;
39540;SDS011;25219;52.244;21.006;2024-03-25T04:10:05;28.00;;;10.75;;
39540;SDS011;25219;52.244;21.006;2024-03-25T04:12:30;20.58;;;10.05;;
39540;SDS011;25219;52.244;21.006;2024-03-25T04:14:55;19.70;;;9.63;;
39540;SDS011;25219;52.244;21.006;2024-03-25T04:17:21;20.90;;;10.00;;
39540;SDS011;25219;52.244;21.006;2024-03-25T04:19:48;19.33;;;10.00;;
39540;SDS011;25219;52.244;21.006;2024-03-25T04:22:13;21.20;;;9.75;;
39540;SDS011;25219;52.244;21.006;2024-03-25T04:24:38;19.35;;;9.30;;
39540;SDS011;25219;52.244;21.006;2024-03-25T04:27:03;21.70;;;10.10;;
39540;SDS011;25219;52.244;21.006;2024-03-25T04:29:28;20.30;;;8.90;;
39540;SDS011;25219;52.244;21.006;2024-03-25T04:31:54;23.50;;;9.77;;
39540;SDS011;25219;52.244;21.006;2024-03-25T04:34:19;19.83;;;9.27;;
39540;SDS011;25219;52.244;21.006;2024-03-25T04:36:45;22.02;;;9.32;;
39540;SDS011;25219;52.244;21.006;2024-03-25T04:39:10;20.73;;;9.60;;
39540;SDS011;25219;52.244;21.006;2024-03-25T04:41:36;20.77;;;10.00;;
39540;SDS011;25219;52.244;21.006;2024-03-25T04:44:01;22.83;;;9.43;;
39540;SDS011;25219;52.244;21.006;2024-03-25T04:46:26;20.23;;;10.03;;
39540;SDS011;25219;52.244;21.006;2024-03-25T04:48:51;22.00;;;9.88;;
39540;SDS011;25219;52.244;21.006;2024-03-25T04:51:17;24.07;;;10.60;;
39540;SDS011;25219;52.244;21.006;2024-03-25T04:53:42;17.50;;;9.50;;
39540;SDS011;25219;52.244;21.006;2024-03-25T04:56:07;22.17;;;9.33;;
39540;SDS011;25219;52.244;21.006;2024-03-25T04:58:32;20.25;;;9.68;;
39540;SDS011;25219;52.244;21.006;2024-03-25T05:00:57;22.55;;;10.30;;
39540;SDS011;25219;52.244;21.006;2024-03-25T05:03:23;22.33;;;10.30;;
39540;SDS011;25219;52.244;21.006;2024-03-25T05:05:48;25.53;;;10.77;;
39540;SDS011;25219;52.244;21.006;2024-03-25T05:08:13;19.65;;;9.20;;
39540;SDS011;25219;52.244;21.006;2024-03-25T05:10:38;16.35;;;8.50;;
39540;SDS011;25219;52.244;21.006;2024-03-25T05:13:03;24.03;;;9.57;;
39540;SDS011;25219;52.244;21.006;2024-03-25T05:15:28;19.70;;;9.27;;
39540;SDS011;25219;52.244;21.006;2024-03-25T05:17:54;15.80;;;8.53;;
39540;SDS011;25219;52.244;21.006;2024-03-25T05:20:19;18.70;;;8.50;;
39540;SDS011;25219;52.244;21.006;2024-03-25T05:22:44;16.37;;;8.77;;
39540;SDS011;25219;52.244;21.006;2024-03-25T05:25:09;20.70;;;9.75;;
39540;SDS011;25219;52.244;21.006;2024-03-25T05:27:34;20.37;;;9.27;;
39540;SDS011;25219;52.244;21.006;2024-03-25T05:29:59;17.65;;;8.00;;
39540;SDS011;25219;52.244;21.006;2024-03-25T05:32:24;18.10;;;8.67;;
39540;SDS011;25219;52.244;21.006;2024-03-25T05:34:51;21.10;;;9.18;;
39540;SDS011;25219;52.244;21.006;2024-03-25T05:37:17;24.42;;;9.43;;
39540;SDS011;25219;52.244;21.006;2024-03-25T05:39:42;18.43;;;8.87;;
39540;SDS011;25219;52.244;21.006;2024-03-25T05:42:07;18.77;;;8.48;;
39540;SDS011;25219;52.244;21.006;2024-03-25T05:44:32;23.27;;;8.98;;
39540;SDS011;25219;52.244;21.006;2024-03-25T05:46:58;18.43;;;9.00;;
39540;SDS011;25219;52.244;21.006;2024-03-25T05:49:23;18.67;;;8.45;;
39540;SDS011;25219;52.244;21.006;2024-03-25T05:51:48;18.97;;;8.87;;
39540;SDS011;25219;52.244;21.006;2024-03-25T05:54:13;19.67;;;8.40;;
39540;SDS011;25219;52.244;21.006;2024-03-25T05:56:38;16.25;;;8.43;;
39540;SDS011;25219;52.244;21.006;2024-03-25T05:59:03;19.10;;;8.47;;
39540;SDS011;25219;52.244;21.006;2024-03-25T06:01:29;20.93;;;8.07;;
39540;SDS011;25219;52.244;21.006;2024-03-25T06:03:54;14.50;;;7.53;;
39540;SDS011;25219;52.244;21.006;2024-03-25T06:06:19;16.05;;;7.57;;
39540;SDS011;25219;52.244;21.006;2024-03-25T06:08:44;18.00;;;8.00;;
39540;SDS011;25219;52.244;21.006;2024-03-25T06:11:10;14.90;;;7.47;;
39540;SDS011;25219;52.244;21.006;2024-03-25T06:13:35;17.33;;;7.87;;
39540;SDS011;25219;52.244;21.006;2024-03-25T06:16:00;18.92;;;8.02;;
39540;SDS011;25219;52.244;21.006;2024-03-25T06:18:25;15.37;;;7.70;;
39540;SDS011;25219;52.244;21.006;2024-03-25T06:20:50;15.00;;;7.17;;
39540;SDS011;25219;52.244;21.006;2024-03-25T06:23:22;15.48;;;7.80;;
39540;SDS011;25219;52.244;21.006;2024-03-25T06:25:48;19.80;;;8.10;;
39540;SDS011;25219;52.244;21.006;2024-03-25T06:28:13;17.52;;;7.60;;
39540;SDS011;25219;52.244;21.006;2024-03-25T06:30:38;18.48;;;7.35;;
39540;SDS011;25219;52.244;21.006;2024-03-25T06:33:22;12.40;;;6.63;;
39540;SDS011;25219;52.244;21.006;2024-03-25T06:36:06;15.00;;;7.00;;
39540;SDS011;25219;52.244;21.006;2024-03-25T06:38:32;17.50;;;7.10;;
39540;SDS011;25219;52.244;21.006;2024-03-25T06:40:57;12.10;;;6.40;;
39540;SDS011;25219;52.244;21.006;2024-03-25T06:43:23;12.43;;;6.72;;
39540;SDS011;25219;52.244;21.006;2024-03-25T06:45:48;16.27;;;6.80;;
39540;SDS011;25219;52.244;21.006;2024-03-25T06:48:13;16.88;;;6.68;;
39540;SDS011;25219;52.244;21.006;2024-03-25T06:50:39;16.70;;;8.05;;
39540;SDS011;25219;52.244;21.006;2024-03-25T06:53:04;13.07;;;6.95;;
39540;SDS011;25219;52.244;21.006;2024-03-25T06:55:29;15.13;;;7.10;;
39540;SDS011;25219;52.244;21.006;2024-03-25T06:57:55;14.32;;;7.03;;
39540;SDS011;25219;52.244;21.006;2024-03-25T07:00:20;15.05;;;6.30;;
39540;SDS011;25219;52.244;21.006;2024-03-25T07:02:47;13.95;;;7.30;;
39540;SDS011;25219;52.244;21.006;2024-03-25T07:05:12;15.30;;;6.53;;
39540;SDS011;25219;52.244;21.006;2024-03-25T07:07:37;13.90;;;6.43;;
39540;SDS011;25219;52.244;21.006;2024-03-25T07:10:02;13.30;;;6.93;;
39540;SDS011;25219;52.244;21.006;2024-03-25T07:12:27;12.57;;;6.20;;
39540;SDS011;25219;52.244;21.006;2024-03-25T07:14:53;15.02;;;6.68;;
39540;SDS011;25219;52.244;21.006;2024-03-25T07:17:18;14.88;;;6.78;;
39540;SDS011;25219;52.244;21.006;2024-03-25T07:19:44;15.40;;;6.30;;
39540;SDS011;25219;52.244;21.006;2024-03-25T07:22:10;13.18;;;6.32;;
39540;SDS011;25219;52.244;21.006;2024-03-25T07:24:35;13.37;;;6.33;;
39540;SDS011;25219;52.244;21.006;2024-03-25T07:27:00;18.80;;;6.67;;
39540;SDS011;25219;52.244;21.006;2024-03-25T07:29:25;13.40;;;6.95;;
39540;SDS011;25219;52.244;21.006;2024-03-25T07:31:50;14.18;;;6.82;;
39540;SDS011;25219;52.244;21.006;2024-03-25T07:34:15;12.38;;;6.60;;
39540;SDS011;25219;52.244;21.006;2024-03-25T07:36:41;11.27;;;6.15;;
39540;SDS011;25219;52.244;21.006;2024-03-25T07:39:06;15.18;;;6.70;;
39540;SDS011;25219;52.244;21.006;2024-03-25T07:41:32;11.05;;;6.32;;
39540;SDS011;25219;52.244;21.006;2024-03-25T07:43:58;13.83;;;6.93;;
39540;SDS011;25219;52.244;21.006;2024-03-25T07:46:23;11.50;;;6.07;;
39540;SDS011;25219;52.244;21.006;2024-03-25T07:48:48;11.80;;;6.60;;
39540;SDS011;25219;52.244;21.006;2024-03-25T07:51:13;9.83;;;6.13;;
39540;SDS011;25219;52.244;21.006;2024-03-25T07:53:38;13.37;;;6.77;;
39540;SDS011;25219;52.244;21.006;2024-03-25T07:56:04;11.27;;;6.50;;
39540;SDS011;25219;52.244;21.006;2024-03-25T07:58:29;12.85;;;5.85;;
39540;SDS011;25219;52.244;21.006;2024-03-25T08:00:55;11.73;;;5.65;;
39540;SDS011;25219;52.244;21.006;2024-03-25T08:03:20;11.48;;;5.90;;
39540;SDS011;25219;52.244;21.006;2024-03-25T08:05:45;10.87;;;6.03;;
39540;SDS011;25219;52.244;21.006;2024-03-25T08:08:10;20.63;;;8.83;;
39540;SDS011;25219;52.244;21.006;2024-03-25T08:10:36;12.47;;;6.23;;
39540;SDS011;25219;52.244;21.006;2024-03-25T08:13:02;11.23;;;5.90;;
39540;SDS011;25219;52.244;21.006;2024-03-25T08:15:27;14.53;;;5.60;;
39540;SDS011;25219;52.244;21.006;2024-03-25T08:17:53;17.50;;;6.65;;
39540;SDS011;25219;52.244;21.006;2024-03-25T08:20:18;8.40;;;4.90;;
39540;SDS011;25219;52.244;21.006;2024-03-25T08:22:43;12.55;;;5.63;;
39540;SDS011;25219;52.244;21.006;2024-03-25T08:25:09;16.70;;;6.03;;
39540;SDS011;25219;52.244;21.006;2024-03-25T08:27:34;12.48;;;6.35;;
39540;SDS011;25219;52.244;21.006;2024-03-25T08:29:59;8.37;;;5.07;;
39540;SDS011;25219;52.244;21.006;2024-03-25T08:32:24;9.07;;;5.22;;
39540;SDS011;25219;52.244;21.006;2024-03-25T08:34:50;8.38;;;4.00;;
39540;SDS011;25219;52.244;21.006;2024-03-25T08:37:15;7.32;;;4.38;;
39540;SDS011;25219;52.244;21.006;2024-03-25T08:39:40;8.73;;;4.65;;
39540;SDS011;25219;52.244;21.006;2024-03-25T08:42:05;7.07;;;4.37;;
39540;SDS011;25219;52.244;21.006;2024-03-25T08:44:30;8.80;;;4.87;;
39540;SDS011;25219;52.244;21.006;2024-03-25T08:46:55;7.75;;;3.90;;
39540;SDS011;25219;52.244;21.006;2024-03-25T08:49:21;5.93;;;3.80;;
39540;SDS011;25219;52.244;21.006;2024-03-25T08:51:46;7.07;;;4.18;;
39540;SDS011;25219;52.244;21.006;2024-03-25T08:54:12;8.45;;;3.55;;
39540;SDS011;25219;52.244;21.006;2024-03-25T08:56:37;6.18;;;3.58;;
39540;SDS011;25219;52.244;21.006;2024-03-25T08:59:02;6.33;;;3.93;;
39540;SDS011;25219;52.244;21.006;2024-03-25T09:01:28;5.53;;;3.42;;
39540;SDS011;25219;52.244;21.006;2024-03-25T09:03:53;8.63;;;3.90;;
39540;SDS011;25219;52.244;21.006;2024-03-25T09:06:18;5.63;;;3.73;;
39540;SDS011;25219;52.244;21.006;2024-03-25T09:08:43;6.83;;;3.40;;
39540;SDS011;25219;52.244;21.006;2024-03-25T09:11:27;7.88;;;3.78;;
39540;SDS011;25219;52.244;21.006;2024-03-25T09:13:52;7.28;;;3.70;;
39540;SDS011;25219;52.244;21.006;2024-03-25T09:16:18;8.10;;;4.43;;
39540;SDS011;25219;52.244;21.006;2024-03-25T09:18:43;9.80;;;4.70;;
39540;SDS011;25219;52.244;21.006;2024-03-25T09:21:08;9.00;;;4.30;;
39540;SDS011;25219;52.244;21.006;2024-03-25T09:23:33;8.07;;;4.13;;
39540;SDS011;25219;52.244;21.006;2024-03-25T09:25:59;20.13;;;6.63;;
39540;SDS011;25219;52.244;21.006;2024-03-25T09:28:24;6.27;;;4.00;;
39540;SDS011;25219;52.244;21.006;2024-03-25T09:30:49;12.93;;;4.25;;
39540;SDS011;25219;52.244;21.006;2024-03-25T09:33:14;7.65;;;3.97;;
39540;SDS011;25219;52.244;21.006;2024-03-25T09:35:40;7.97;;;3.80;;
39540;SDS011;25219;52.244;21.006;2024-03-25T09:38:05;7.93;;;3.90;;
39540;SDS011;25219;52.244;21.006;2024-03-25T09:40:30;9.63;;;4.13;;
39540;SDS011;25219;52.244;21.006;2024-03-25T09:42:56;6.53;;;3.60;;
39540;SDS011;25219;52.244;21.006;2024-03-25T09:45:22;7.25;;;3.63;;
39540;SDS011;25219;52.244;21.006;2024-03-25T09:47:49;6.90;;;3.80;;
39540;SDS011;25219;52.244;21.006;2024-03-25T09:50:15;10.07;;;3.30;;
39540;SDS011;25219;52.244;21.006;2024-03-25T09:52:49;9.27;;;3.92;;
39540;SDS011;25219;52.244;21.006;2024-03-25T09:55:15;7.28;;;3.22;;
39540;SDS011;25219;52.244;21.006;2024-03-25T09:57:41;3.92;;;3.00;;
39540;SDS011;25219;52.244;21.006;2024-03-25T10:00:07;10.88;;;3.78;;
39540;SDS011;25219;52.244;21.006;2024-03-25T10:02:34;9.35;;;3.92;;
39540;SDS011;25219;52.244;21.006;2024-03-25T10:04:59;12.40;;;3.63;;
39540;SDS011;25219;52.244;21.006;2024-03-25T10:07:24;4.22;;;2.72;;
39540;SDS011;25219;52.244;21.006;2024-03-25T10:09:50;3.40;;;2.22;;
39540;SDS011;25219;52.244;21.006;2024-03-25T10:12:15;11.93;;;2.72;;
39540;SDS011;25219;52.244;21.006;2024-03-25T10:14:41;4.72;;;2.92;;
39540;SDS011;25219;52.244;21.006;2024-03-25T10:17:06;4.80;;;2.97;;
39540;SDS011;25219;52.244;21.006;2024-03-25T10:19:32;5.03;;;3.17;;
39540;SDS011;25219;52.244;21.006;2024-03-25T10:22:04;8.57;;;3.72;;
39540;SDS011;25219;52.244;21.006;2024-03-25T10:24:42;6.03;;;3.50;;
39540;SDS011;25219;52.244;21.006;2024-03-25T10:27:25;7.75;;;3.95;;
39540;SDS011;25219;52.244;21.006;2024-03-25T10:29:54;5.97;;;3.40;;
39540;SDS011;25219;52.244;21.006;2024-03-25T10:32:22;3.72;;;2.50;;
39540;SDS011;25219;52.244;21.006;2024-03-25T10:34:53;31.75;;;13.00;;
39540;SDS011;25219;52.244;21.006;2024-03-25T10:37:18;10.20;;;6.03;;
39540;SDS011;25219;52.244;21.006;2024-03-25T10:39:48;5.63;;;2.55;;
39540;SDS011;25219;52.244;21.006;2024-03-25T10:42:18;4.47;;;2.63;;
39540;SDS011;25219;52.244;21.006;2024-03-25T10:44:44;5.22;;;3.10;;
39540;SDS011;25219;52.244;21.006;2024-03-25T10:47:09;4.70;;;3.10;;
39540;SDS011;25219;52.244;21.006;2024-03-25T10:49:49;4.93;;;2.60;;
39540;SDS011;25219;52.244;21.006;2024-03-25T10:52:15;9.45;;;3.05;;
39540;SDS011;25219;52.244;21.006;2024-03-25T10:54:41;7.68;;;3.30;;
39540;SDS011;25219;52.244;21.006;2024-03-25T10:57:07;6.28;;;3.28;;
39540;SDS011;25219;52.244;21.006;2024-03-25T10:59:34;5.13;;;2.70;;
39540;SDS011;25219;52.244;21.006;2024-03-25T11:02:03;4.38;;;2.92;;
39540;SDS011;25219;52.244;21.006;2024-03-25T11:04:28;3.03;;;2.08;;
39540;SDS011;25219;52.244;21.006;2024-03-25T11:06:53;3.78;;;2.60;;
39540;SDS011;25219;52.244;21.006;2024-03-25T11:09:24;6.28;;;3.08;;
39540;SDS011;25219;52.244;21.006;2024-03-25T11:11:51;3.38;;;2.08;;
39540;SDS011;25219;52.244;21.006;2024-03-25T11:14:16;4.03;;;2.20;;
39540;SDS011;25219;52.244;21.006;2024-03-25T11:16:41;4.32;;;2.58;;
39540;SDS011;25219;52.244;21.006;2024-03-25T11:19:10;4.17;;;2.37;;
39540;SDS011;25219;52.244;21.006;2024-03-25T11:21:35;4.43;;;2.75;;
39540;SDS011;25219;52.244;21.006;2024-03-25T11:24:06;8.57;;;2.97;;
39540;SDS011;25219;52.244;21.006;2024-03-25T11:26:32;5.85;;;2.90;;
39540;SDS011;25219;52.244;21.006;2024-03-25T11:29:00;3.17;;;2.10;;
39540;SDS011;25219;52.244;21.006;2024-03-25T11:31:25;5.63;;;2.97;;
39540;SDS011;25219;52.244;21.006;2024-03-25T11:33:51;3.78;;;2.38;;
39540;SDS011;25219;52.244;21.006;2024-03-25T11:36:16;3.97;;;2.90;;
39540;SDS011;25219;52.244;21.006;2024-03-25T11:38:43;5.22;;;2.85;;
39540;SDS011;25219;52.244;21.006;2024-03-25T11:41:09;3.97;;;2.53;;
39540;SDS011;25219;52.244;21.006;2024-03-25T11:43:35;9.13;;;3.22;;
39540;SDS011;25219;52.244;21.006;2024-03-25T11:46:01;4.88;;;2.50;;
39540;SDS011;25219;52.244;21.006;2024-03-25T11:48:26;4.07;;;2.40;;
39540;SDS011;25219;52.244;21.006;2024-03-25T11:50:54;4.95;;;2.88;;
39540;SDS011;25219;52.244;21.006;2024-03-25T11:53:19;3.47;;;2.70;;
39540;SDS011;25219;52.244;21.006;2024-03-25T11:55:47;3.40;;;2.55;;
39540;SDS011;25219;52.244;21.006;2024-03-25T11:58:13;5.80;;;2.50;;
39540;SDS011;25219;52.244;21.006;2024-03-25T12:00:44;11.52;;;2.38;;
39540;SDS011;25219;52.244;21.006;2024-03-25T12:03:10;4.60;;;2.15;;
39540;SDS011;25219;52.244;21.006;2024-03-25T12:05:36;5.28;;;2.20;;
39540;SDS011;25219;52.244;21.006;2024-03-25T12:08:01;2.40;;;1.93;;
39540;SDS011;25219;52.244;21.006;2024-03-25T12:10:27;4.00;;;2.30;;
39540;SDS011;25219;52.244;21.006;2024-03-25T12:13:11;3.65;;;2.30;;
39540;SDS011;25219;52.244;21.006;2024-03-25T12:15:36;3.75;;;2.00;;
39540;SDS011;25219;52.244;21.006;2024-03-25T12:18:01;4.10;;;2.20;;
39540;SDS011;25219;52.244;21.006;2024-03-25T12:20:26;4.30;;;2.07;;
39540;SDS011;25219;52.244;21.006;2024-03-25T12:22:52;4.97;;;2.10;;
39540;SDS011;25219;52.244;21.006;2024-03-25T12:25:18;4.35;;;2.35;;
39540;SDS011;25219;52.244;21.006;2024-03-25T12:27:45;4.05;;;2.15;;
39540;SDS011;25219;52.244;21.006;2024-03-25T12:30:11;5.20;;;2.13;;
39540;SDS011;25219;52.244;21.006;2024-03-25T12:32:36;3.70;;;1.98;;
39540;SDS011;25219;52.244;21.006;2024-03-25T12:35:02;3.05;;;2.28;;
39540;SDS011;25219;52.244;21.006;2024-03-25T12:37:28;8.18;;;2.50;;
39540;SDS011;25219;52.244;21.006;2024-03-25T12:39:53;6.47;;;2.40;;
39540;SDS011;25219;52.244;21.006;2024-03-25T12:42:19;4.00;;;2.35;;
39540;SDS011;25219;52.244;21.006;2024-03-25T12:44:44;4.50;;;2.47;;
39540;SDS011;25219;52.244;21.006;2024-03-25T12:47:09;3.92;;;2.20;;
39540;SDS011;25219;52.244;21.006;2024-03-25T12:49:35;6.63;;;2.70;;
39540;SDS011;25219;52.244;21.006;2024-03-25T12:52:00;6.33;;;2.97;;
39540;SDS011;25219;52.244;21.006;2024-03-25T12:54:25;7.03;;;3.03;;
39540;SDS011;25219;52.244;21.006;2024-03-25T12:56:50;5.00;;;3.10;;
39540;SDS011;25219;52.244;21.006;2024-03-25T12:59:15;5.03;;;3.20;;
39540;SDS011;25219;52.244;21.006;2024-03-25T13:01:40;9.47;;;4.40;;
39540;SDS011;25219;52.244;21.006;2024-03-25T13:04:06;7.15;;;4.28;;
39540;SDS011;25219;52.244;21.006;2024-03-25T13:06:31;6.53;;;4.30;;
39540;SDS011;25219;52.244;21.006;2024-03-25T13:08:56;7.27;;;4.60;;
39540;SDS011;25219;52.244;21.006;2024-03-25T13:11:22;9.80;;;4.20;;
39540;SDS011;25219;52.244;21.006;2024-03-25T13:13:47;8.93;;;5.17;;
39540;SDS011;25219;52.244;21.006;2024-03-25T13:16:12;7.73;;;4.87;;
39540;SDS011;25219;52.244;21.006;2024-03-25T13:18:37;10.60;;;5.13;;
39540;SDS011;25219;52.244;21.006;2024-03-25T13:21:02;11.20;;;4.93;;
39540;SDS011;25219;52.244;21.006;2024-03-25T13:23:28;6.50;;;4.53;;
39540;SDS011;25219;52.244;21.006;2024-03-25T13:25:53;9.20;;;5.13;;
39540;SDS011;25219;52.244;21.006;2024-03-25T13:28:18;7.87;;;4.53;;
39540;SDS011;25219;52.244;21.006;2024-03-25T13:30:43;11.13;;;5.20;;
39540;SDS011;25219;52.244;21.006;2024-03-25T13:33:08;7.40;;;4.67;;
39540;SDS011;25219;52.244;21.006;2024-03-25T13:35:34;8.73;;;5.35;;
39540;SDS011;25219;52.244;21.006;2024-03-25T13:37:59;6.57;;;4.40;;
39540;SDS011;25219;52.244;21.006;2024-03-25T13:40:24;8.47;;;3.90;;
39540;SDS011;25219;52.244;21.006;2024-03-25T13:42:49;6.53;;;4.00;;
39540;SDS011;25219;52.244;21.006;2024-03-25T13:45:14;10.02;;;3.97;;
39540;SDS011;25219;52.244;21.006;2024-03-25T13:47:40;6.43;;;4.10;;
39540;SDS011;25219;52.244;21.006;2024-03-25T13:50:05;8.27;;;3.92;;
39540;SDS011;25219;52.244;21.006;2024-03-25T13:52:34;6.25;;;4.03;;
39540;SDS011;25219;52.244;21.006;2024-03-25T13:54:59;7.32;;;4.10;;
39540;SDS011;25219;52.244;21.006;2024-03-25T13:57:25;5.95;;;4.10;;
39540;SDS011;25219;52.244;21.006;2024-03-25T13:59:50;8.70;;;4.30;;
39540;SDS011;25219;52.244;21.006;2024-03-25T14:02:15;6.00;;;4.30;;
39540;SDS011;25219;52.244;21.006;2024-03-25T14:04:41;8.83;;;4.10;;
39540;SDS011;25219;52.244;21.006;2024-03-25T14:07:06;6.97;;;4.17;;
39540;SDS011;25219;52.244;21.006;2024-03-25T14:09:31;6.33;;;4.03;;
39540;SDS011;25219;52.244;21.006;2024-03-25T14:11:56;6.57;;;3.80;;
39540;SDS011;25219;52.244;21.006;2024-03-25T14:14:21;5.33;;;4.00;;
39540;SDS011;25219;52.244;21.006;2024-03-25T14:16:47;6.40;;;4.03;;